sensor_id;sensor_type;location;lat;lon;timestamp;P1;durP1;ratioP1;P2;durP2;ratioP2
75793;SDS011;64418;47.536;19.074;2023-08-06T00:00:10;7.60;;;5.20;;
75793;SDS011;64418;47.536;19.074;2023-08-06T00:02:36;7.07;;;5.00;;
75793;SDS011;64418;47.536;19.074;2023-08-06T00:05:02;6.78;;;5.10;;
75793;SDS011;64418;47.536;19.074;2023-08-06T00:07:28;8.90;;;5.15;;
75793;SDS011;64418;47.536;19.074;2023-08-06T00:09:56;9.20;;;5.47;;
75793;SDS011;64418;47.536;19.074;2023-08-06T00:12:23;8.93;;;5.70;;
75793;SDS011;64418;47.536;19.074;2023-08-06T00:14:52;8.02;;;5.07;;
75793;SDS011;64418;47.536;19.074;2023-08-06T00:17:18;6.80;;;4.80;;
75793;SDS011;64418;47.536;19.074;2023-08-06T00:19:44;7.85;;;6.05;;
75793;SDS011;64418;47.536;19.074;2023-08-06T00:22:10;7.53;;;5.80;;
75793;SDS011;64418;47.536;19.074;2023-08-06T00:24:36;10.82;;;5.72;;
75793;SDS011;64418;47.536;19.074;2023-08-06T00:27:05;6.75;;;5.10;;
75793;SDS011;64418;47.536;19.074;2023-08-06T00:29:33;8.05;;;5.78;;
75793;SDS011;64418;47.536;19.074;2023-08-06T00:31:59;8.90;;;6.23;;
75793;SDS011;64418;47.536;19.074;2023-08-06T00:34:25;8.35;;;6.18;;
75793;SDS011;64418;47.536;19.074;2023-08-06T00:36:51;8.02;;;5.87;;
75793;SDS011;64418;47.536;19.074;2023-08-06T00:39:17;8.20;;;6.03;;
75793;SDS011;64418;47.536;19.074;2023-08-06T00:41:43;8.83;;;6.47;;
75793;SDS011;64418;47.536;19.074;2023-08-06T00:44:10;9.35;;;6.28;;
75793;SDS011;64418;47.536;19.074;2023-08-06T00:46:40;10.02;;;6.70;;
75793;SDS011;64418;47.536;19.074;2023-08-06T00:49:06;11.52;;;7.32;;
75793;SDS011;64418;47.536;19.074;2023-08-06T00:51:32;11.37;;;7.07;;
75793;SDS011;64418;47.536;19.074;2023-08-06T00:53:59;9.90;;;6.57;;
75793;SDS011;64418;47.536;19.074;2023-08-06T00:56:25;10.73;;;7.22;;
75793;SDS011;64418;47.536;19.074;2023-08-06T00:58:50;11.10;;;7.25;;
75793;SDS011;64418;47.536;19.074;2023-08-06T01:01:17;10.03;;;6.93;;
75793;SDS011;64418;47.536;19.074;2023-08-06T01:03:44;10.70;;;7.60;;
75793;SDS011;64418;47.536;19.074;2023-08-06T01:06:11;10.23;;;7.00;;
75793;SDS011;64418;47.536;19.074;2023-08-06T01:08:40;13.00;;;7.55;;
75793;SDS011;64418;47.536;19.074;2023-08-06T01:11:16;10.80;;;7.43;;
75793;SDS011;64418;47.536;19.074;2023-08-06T01:13:53;11.87;;;7.50;;
75793;SDS011;64418;47.536;19.074;2023-08-06T01:16:25;9.90;;;7.37;;
75793;SDS011;64418;47.536;19.074;2023-08-06T01:18:53;9.23;;;6.60;;
75793;SDS011;64418;47.536;19.074;2023-08-06T01:21:20;11.95;;;6.47;;
75793;SDS011;64418;47.536;19.074;2023-08-06T01:23:47;8.48;;;6.45;;
75793;SDS011;64418;47.536;19.074;2023-08-06T01:26:19;8.33;;;5.63;;
75793;SDS011;64418;47.536;19.074;2023-08-06T01:28:54;10.00;;;6.00;;
75793;SDS011;64418;47.536;19.074;2023-08-06T01:31:26;7.93;;;5.85;;
75793;SDS011;64418;47.536;19.074;2023-08-06T01:33:55;10.25;;;5.93;;
75793;SDS011;64418;47.536;19.074;2023-08-06T01:36:27;8.48;;;6.05;;
75793;SDS011;64418;47.536;19.074;2023-08-06T01:38:56;8.73;;;6.07;;
75793;SDS011;64418;47.536;19.074;2023-08-06T01:41:22;8.20;;;5.78;;
75793;SDS011;64418;47.536;19.074;2023-08-06T01:43:48;8.27;;;6.00;;
75793;SDS011;64418;47.536;19.074;2023-08-06T01:46:16;8.03;;;6.00;;
75793;SDS011;64418;47.536;19.074;2023-08-06T01:48:42;8.88;;;5.97;;
75793;SDS011;64418;47.536;19.074;2023-08-06T01:51:08;8.23;;;5.93;;
75793;SDS011;64418;47.536;19.074;2023-08-06T01:53:35;8.10;;;5.82;;
75793;SDS011;64418;47.536;19.074;2023-08-06T01:56:00;9.40;;;5.55;;
75793;SDS011;64418;47.536;19.074;2023-08-06T01:58:29;7.62;;;5.60;;
75793;SDS011;64418;47.536;19.074;2023-08-06T02:00:55;7.43;;;5.57;;
75793;SDS011;64418;47.536;19.074;2023-08-06T02:03:21;7.80;;;6.05;;
75793;SDS011;64418;47.536;19.074;2023-08-06T02:05:47;8.35;;;6.00;;
75793;SDS011;64418;47.536;19.074;2023-08-06T02:08:13;8.70;;;5.57;;
75793;SDS011;64418;47.536;19.074;2023-08-06T02:10:41;7.87;;;5.57;;
75793;SDS011;64418;47.536;19.074;2023-08-06T02:13:10;7.37;;;5.70;;
75793;SDS011;64418;47.536;19.074;2023-08-06T02:15:41;9.13;;;5.07;;
75793;SDS011;64418;47.536;19.074;2023-08-06T02:18:07;7.85;;;5.65;;
75793;SDS011;64418;47.536;19.074;2023-08-06T02:20:33;7.43;;;5.30;;
75793;SDS011;64418;47.536;19.074;2023-08-06T02:22:59;7.43;;;5.27;;
75793;SDS011;64418;47.536;19.074;2023-08-06T02:25:25;9.83;;;6.77;;
75793;SDS011;64418;47.536;19.074;2023-08-06T02:27:52;9.40;;;5.90;;
75793;SDS011;64418;47.536;19.074;2023-08-06T02:30:18;10.20;;;6.40;;
75793;SDS011;64418;47.536;19.074;2023-08-06T02:32:44;9.93;;;7.17;;
75793;SDS011;64418;47.536;19.074;2023-08-06T02:35:09;9.63;;;6.43;;
75793;SDS011;64418;47.536;19.074;2023-08-06T02:37:35;8.50;;;6.30;;
75793;SDS011;64418;47.536;19.074;2023-08-06T02:40:01;10.75;;;7.20;;
75793;SDS011;64418;47.536;19.074;2023-08-06T02:42:28;8.75;;;6.18;;
75793;SDS011;64418;47.536;19.074;2023-08-06T02:44:55;9.13;;;6.60;;
75793;SDS011;64418;47.536;19.074;2023-08-06T02:47:21;8.77;;;6.18;;
75793;SDS011;64418;47.536;19.074;2023-08-06T02:49:46;9.73;;;6.07;;
75793;SDS011;64418;47.536;19.074;2023-08-06T02:52:12;8.63;;;6.30;;
75793;SDS011;64418;47.536;19.074;2023-08-06T02:54:38;8.30;;;5.87;;
75793;SDS011;64418;47.536;19.074;2023-08-06T02:57:04;7.05;;;5.32;;
75793;SDS011;64418;47.536;19.074;2023-08-06T02:59:31;8.70;;;5.33;;
75793;SDS011;64418;47.536;19.074;2023-08-06T03:02:01;10.07;;;5.37;;
75793;SDS011;64418;47.536;19.074;2023-08-06T03:04:27;7.30;;;5.78;;
75793;SDS011;64418;47.536;19.074;2023-08-06T03:06:52;10.03;;;5.33;;
75793;SDS011;64418;47.536;19.074;2023-08-06T03:09:18;6.90;;;4.93;;
75793;SDS011;64418;47.536;19.074;2023-08-06T03:11:47;9.05;;;5.70;;
75793;SDS011;64418;47.536;19.074;2023-08-06T03:14:13;7.85;;;5.60;;
75793;SDS011;64418;47.536;19.074;2023-08-06T03:16:39;7.60;;;5.53;;
75793;SDS011;64418;47.536;19.074;2023-08-06T03:19:09;7.00;;;5.40;;
75793;SDS011;64418;47.536;19.074;2023-08-06T03:21:35;7.93;;;5.85;;
75793;SDS011;64418;47.536;19.074;2023-08-06T03:24:00;8.18;;;6.68;;
75793;SDS011;64418;47.536;19.074;2023-08-06T03:26:26;8.70;;;4.90;;
75793;SDS011;64418;47.536;19.074;2023-08-06T03:28:52;6.80;;;5.07;;
75793;SDS011;64418;47.536;19.074;2023-08-06T03:31:18;7.33;;;5.53;;
75793;SDS011;64418;47.536;19.074;2023-08-06T03:33:44;12.63;;;8.32;;
75793;SDS011;64418;47.536;19.074;2023-08-06T03:36:11;8.50;;;5.70;;
75793;SDS011;64418;47.536;19.074;2023-08-06T03:38:37;11.00;;;5.35;;
75793;SDS011;64418;47.536;19.074;2023-08-06T03:41:03;10.60;;;5.73;;
75793;SDS011;64418;47.536;19.074;2023-08-06T03:43:28;6.62;;;4.90;;
75793;SDS011;64418;47.536;19.074;2023-08-06T03:45:54;7.53;;;5.33;;
75793;SDS011;64418;47.536;19.074;2023-08-06T03:48:20;8.05;;;5.68;;
75793;SDS011;64418;47.536;19.074;2023-08-06T03:50:45;8.60;;;6.10;;
75793;SDS011;64418;47.536;19.074;2023-08-06T03:53:15;9.90;;;5.93;;
75793;SDS011;64418;47.536;19.074;2023-08-06T03:55:41;8.43;;;5.70;;
75793;SDS011;64418;47.536;19.074;2023-08-06T03:58:07;9.52;;;5.40;;
75793;SDS011;64418;47.536;19.074;2023-08-06T04:00:33;8.53;;;5.60;;
75793;SDS011;64418;47.536;19.074;2023-08-06T04:03:01;7.68;;;5.20;;
75793;SDS011;64418;47.536;19.074;2023-08-06T04:05:27;7.55;;;4.62;;
75793;SDS011;64418;47.536;19.074;2023-08-06T04:07:56;5.07;;;3.70;;
75793;SDS011;64418;47.536;19.074;2023-08-06T04:10:23;5.87;;;3.57;;
75793;SDS011;64418;47.536;19.074;2023-08-06T04:12:49;6.28;;;4.00;;
75793;SDS011;64418;47.536;19.074;2023-08-06T04:15:15;5.20;;;3.92;;
75793;SDS011;64418;47.536;19.074;2023-08-06T04:17:41;8.30;;;3.90;;
75793;SDS011;64418;47.536;19.074;2023-08-06T04:20:07;5.73;;;4.03;;
75793;SDS011;64418;47.536;19.074;2023-08-06T04:22:33;6.10;;;3.85;;
75793;SDS011;64418;47.536;19.074;2023-08-06T04:24:59;6.27;;;4.23;;
75793;SDS011;64418;47.536;19.074;2023-08-06T04:27:26;5.50;;;4.00;;
75793;SDS011;64418;47.536;19.074;2023-08-06T04:29:51;7.37;;;3.92;;
75793;SDS011;64418;47.536;19.074;2023-08-06T04:32:17;6.40;;;4.30;;
75793;SDS011;64418;47.536;19.074;2023-08-06T04:34:43;5.22;;;3.37;;
75793;SDS011;64418;47.536;19.074;2023-08-06T04:37:09;4.37;;;3.20;;
75793;SDS011;64418;47.536;19.074;2023-08-06T04:39:37;7.23;;;3.23;;
75793;SDS011;64418;47.536;19.074;2023-08-06T04:42:04;6.32;;;2.40;;
75793;SDS011;64418;47.536;19.074;2023-08-06T04:44:32;3.60;;;2.33;;
75793;SDS011;64418;47.536;19.074;2023-08-06T04:47:01;3.70;;;2.30;;
75793;SDS011;64418;47.536;19.074;2023-08-06T04:49:27;2.65;;;2.10;;
75793;SDS011;64418;47.536;19.074;2023-08-06T04:51:53;3.00;;;1.80;;
75793;SDS011;64418;47.536;19.074;2023-08-06T04:54:19;2.40;;;1.40;;
75793;SDS011;64418;47.536;19.074;2023-08-06T04:56:45;1.62;;;0.90;;
75793;SDS011;64418;47.536;19.074;2023-08-06T04:59:10;1.00;;;0.70;;
75793;SDS011;64418;47.536;19.074;2023-08-06T05:01:37;1.02;;;0.60;;
75793;SDS011;64418;47.536;19.074;2023-08-06T05:04:03;3.85;;;2.70;;
75793;SDS011;64418;47.536;19.074;2023-08-06T05:06:29;1.60;;;1.00;;
75793;SDS011;64418;47.536;19.074;2023-08-06T05:08:55;0.57;;;0.40;;
75793;SDS011;64418;47.536;19.074;2023-08-06T05:11:21;0.73;;;0.40;;
75793;SDS011;64418;47.536;19.074;2023-08-06T05:13:47;0.90;;;0.60;;
75793;SDS011;64418;47.536;19.074;2023-08-06T05:16:16;0.95;;;0.40;;
75793;SDS011;64418;47.536;19.074;2023-08-06T05:18:43;1.55;;;0.50;;
75793;SDS011;64418;47.536;19.074;2023-08-06T05:21:09;1.00;;;0.50;;
75793;SDS011;64418;47.536;19.074;2023-08-06T05:23:34;1.70;;;0.50;;
75793;SDS011;64418;47.536;19.074;2023-08-06T05:26:00;0.63;;;0.40;;
75793;SDS011;64418;47.536;19.074;2023-08-06T05:28:26;0.60;;;0.40;;
75793;SDS011;64418;47.536;19.074;2023-08-06T05:30:52;1.55;;;0.40;;
75793;SDS011;64418;47.536;19.074;2023-08-06T05:33:17;0.53;;;0.40;;
75793;SDS011;64418;47.536;19.074;2023-08-06T05:35:45;1.23;;;0.50;;
75793;SDS011;64418;47.536;19.074;2023-08-06T05:38:11;0.55;;;0.40;;
75793;SDS011;64418;47.536;19.074;2023-08-06T05:40:37;0.73;;;0.50;;
75793;SDS011;64418;47.536;19.074;2023-08-06T05:43:03;0.82;;;0.43;;
75793;SDS011;64418;47.536;19.074;2023-08-06T05:45:29;0.55;;;0.40;;
75793;SDS011;64418;47.536;19.074;2023-08-06T05:47:55;0.50;;;0.30;;
75793;SDS011;64418;47.536;19.074;2023-08-06T05:50:21;0.60;;;0.30;;
75793;SDS011;64418;47.536;19.074;2023-08-06T05:52:48;0.85;;;0.30;;
75793;SDS011;64418;47.536;19.074;2023-08-06T05:55:14;0.60;;;0.40;;
75793;SDS011;64418;47.536;19.074;2023-08-06T05:57:41;0.40;;;0.30;;
75793;SDS011;64418;47.536;19.074;2023-08-06T06:00:07;0.62;;;0.30;;
75793;SDS011;64418;47.536;19.074;2023-08-06T06:02:34;0.30;;;0.30;;
75793;SDS011;64418;47.536;19.074;2023-08-06T06:05:00;1.03;;;0.30;;
75793;SDS011;64418;47.536;19.074;2023-08-06T06:07:25;0.40;;;0.30;;
75793;SDS011;64418;47.536;19.074;2023-08-06T06:09:53;0.50;;;0.25;;
75793;SDS011;64418;47.536;19.074;2023-08-06T06:12:18;0.37;;;0.30;;
75793;SDS011;64418;47.536;19.074;2023-08-06T06:14:44;0.20;;;0.20;;
75793;SDS011;64418;47.536;19.074;2023-08-06T06:17:10;0.45;;;0.20;;
75793;SDS011;64418;47.536;19.074;2023-08-06T06:19:36;0.60;;;0.30;;
75793;SDS011;64418;47.536;19.074;2023-08-06T06:22:02;0.30;;;0.30;;
75793;SDS011;64418;47.536;19.074;2023-08-06T06:24:28;0.30;;;0.30;;
75793;SDS011;64418;47.536;19.074;2023-08-06T06:26:56;0.60;;;0.40;;
75793;SDS011;64418;47.536;19.074;2023-08-06T06:29:22;0.30;;;0.30;;
75793;SDS011;64418;47.536;19.074;2023-08-06T06:31:48;1.97;;;0.50;;
75793;SDS011;64418;47.536;19.074;2023-08-06T06:34:14;0.30;;;0.30;;
75793;SDS011;64418;47.536;19.074;2023-08-06T06:36:40;0.30;;;0.30;;
75793;SDS011;64418;47.536;19.074;2023-08-06T06:39:06;0.40;;;0.30;;
75793;SDS011;64418;47.536;19.074;2023-08-06T06:41:32;0.50;;;0.30;;
75793;SDS011;64418;47.536;19.074;2023-08-06T06:44:01;0.37;;;0.27;;
75793;SDS011;64418;47.536;19.074;2023-08-06T06:46:32;0.20;;;0.20;;
75793;SDS011;64418;47.536;19.074;2023-08-06T06:48:58;0.95;;;0.40;;
75793;SDS011;64418;47.536;19.074;2023-08-06T06:51:24;1.15;;;0.40;;
75793;SDS011;64418;47.536;19.074;2023-08-06T06:53:50;0.63;;;0.37;;
75793;SDS011;64418;47.536;19.074;2023-08-06T06:56:16;0.43;;;0.32;;
75793;SDS011;64418;47.536;19.074;2023-08-06T06:58:41;1.57;;;0.40;;
75793;SDS011;64418;47.536;19.074;2023-08-06T07:01:09;0.70;;;0.60;;
75793;SDS011;64418;47.536;19.074;2023-08-06T07:03:41;0.60;;;0.40;;
75793;SDS011;64418;47.536;19.074;2023-08-06T07:06:08;0.80;;;0.60;;
75793;SDS011;64418;47.536;19.074;2023-08-06T07:08:35;0.80;;;0.50;;
75793;SDS011;64418;47.536;19.074;2023-08-06T07:11:04;0.50;;;0.40;;
75793;SDS011;64418;47.536;19.074;2023-08-06T07:13:35;0.70;;;0.70;;
75793;SDS011;64418;47.536;19.074;2023-08-06T07:16:04;0.60;;;0.50;;
75793;SDS011;64418;47.536;19.074;2023-08-06T07:18:32;0.80;;;0.50;;
75793;SDS011;64418;47.536;19.074;2023-08-06T07:20:57;1.15;;;0.55;;
75793;SDS011;64418;47.536;19.074;2023-08-06T07:23:24;0.37;;;0.30;;
75793;SDS011;64418;47.536;19.074;2023-08-06T07:25:51;0.75;;;0.50;;
75793;SDS011;64418;47.536;19.074;2023-08-06T07:28:18;0.50;;;0.50;;
75793;SDS011;64418;47.536;19.074;2023-08-06T07:30:44;0.45;;;0.40;;
75793;SDS011;64418;47.536;19.074;2023-08-06T07:33:11;1.00;;;0.45;;
75793;SDS011;64418;47.536;19.074;2023-08-06T07:35:39;0.67;;;0.40;;
75793;SDS011;64418;47.536;19.074;2023-08-06T07:38:05;0.47;;;0.30;;
75793;SDS011;64418;47.536;19.074;2023-08-06T07:40:30;0.40;;;0.37;;
75793;SDS011;64418;47.536;19.074;2023-08-06T07:42:57;0.30;;;0.30;;
75793;SDS011;64418;47.536;19.074;2023-08-06T07:45:23;0.50;;;0.40;;
75793;SDS011;64418;47.536;19.074;2023-08-06T07:47:49;0.30;;;0.30;;
75793;SDS011;64418;47.536;19.074;2023-08-06T07:50:15;1.62;;;0.88;;
75793;SDS011;64418;47.536;19.074;2023-08-06T07:52:42;0.50;;;0.20;;
75793;SDS011;64418;47.536;19.074;2023-08-06T07:55:08;0.30;;;0.20;;
75793;SDS011;64418;47.536;19.074;2023-08-06T07:57:35;0.90;;;0.30;;
75793;SDS011;64418;47.536;19.074;2023-08-06T08:00:01;0.65;;;0.20;;
75793;SDS011;64418;47.536;19.074;2023-08-06T08:02:28;0.82;;;0.30;;
75793;SDS011;64418;47.536;19.074;2023-08-06T08:04:55;1.40;;;0.30;;
75793;SDS011;64418;47.536;19.074;2023-08-06T08:07:20;1.30;;;0.40;;
75793;SDS011;64418;47.536;19.074;2023-08-06T08:09:48;0.40;;;0.30;;
75793;SDS011;64418;47.536;19.074;2023-08-06T08:12:13;0.20;;;0.20;;
75793;SDS011;64418;47.536;19.074;2023-08-06T08:14:39;0.40;;;0.30;;
75793;SDS011;64418;47.536;19.074;2023-08-06T08:17:05;0.35;;;0.20;;
75793;SDS011;64418;47.536;19.074;2023-08-06T08:19:31;0.50;;;0.30;;
75793;SDS011;64418;47.536;19.074;2023-08-06T08:21:58;0.40;;;0.30;;
75793;SDS011;64418;47.536;19.074;2023-08-06T08:24:24;0.50;;;0.27;;
75793;SDS011;64418;47.536;19.074;2023-08-06T08:26:52;0.30;;;0.30;;
75793;SDS011;64418;47.536;19.074;2023-08-06T08:29:19;0.35;;;0.30;;
75793;SDS011;64418;47.536;19.074;2023-08-06T08:31:45;1.10;;;0.30;;
75793;SDS011;64418;47.536;19.074;2023-08-06T08:34:11;0.98;;;0.30;;
75793;SDS011;64418;47.536;19.074;2023-08-06T08:36:37;0.47;;;0.30;;
75793;SDS011;64418;47.536;19.074;2023-08-06T08:39:03;0.40;;;0.30;;
75793;SDS011;64418;47.536;19.074;2023-08-06T08:41:29;1.25;;;0.30;;
75793;SDS011;64418;47.536;19.074;2023-08-06T08:43:58;0.40;;;0.30;;
75793;SDS011;64418;47.536;19.074;2023-08-06T08:46:25;0.88;;;0.30;;
75793;SDS011;64418;47.536;19.074;2023-08-06T08:48:52;0.30;;;0.30;;
75793;SDS011;64418;47.536;19.074;2023-08-06T08:51:19;0.30;;;0.20;;
75793;SDS011;64418;47.536;19.074;2023-08-06T08:53:45;0.30;;;0.30;;
75793;SDS011;64418;47.536;19.074;2023-08-06T08:56:14;0.50;;;0.30;;
75793;SDS011;64418;47.536;19.074;2023-08-06T08:58:42;0.25;;;0.20;;
75793;SDS011;64418;47.536;19.074;2023-08-06T09:01:10;1.37;;;0.30;;
75793;SDS011;64418;47.536;19.074;2023-08-06T09:03:37;0.30;;;0.30;;
75793;SDS011;64418;47.536;19.074;2023-08-06T09:06:04;0.52;;;0.28;;
75793;SDS011;64418;47.536;19.074;2023-08-06T09:08:33;1.07;;;0.30;;
75793;SDS011;64418;47.536;19.074;2023-08-06T09:11:01;2.00;;;0.60;;
75793;SDS011;64418;47.536;19.074;2023-08-06T09:13:30;2.15;;;1.00;;
75793;SDS011;64418;47.536;19.074;2023-08-06T09:15:56;1.65;;;0.80;;
75793;SDS011;64418;47.536;19.074;2023-08-06T09:18:28;0.77;;;0.50;;
75793;SDS011;64418;47.536;19.074;2023-08-06T09:20:57;0.70;;;0.30;;
75793;SDS011;64418;47.536;19.074;2023-08-06T09:23:27;0.45;;;0.40;;
75793;SDS011;64418;47.536;19.074;2023-08-06T09:25:55;0.62;;;0.40;;
75793;SDS011;64418;47.536;19.074;2023-08-06T09:28:29;1.15;;;0.40;;
75793;SDS011;64418;47.536;19.074;2023-08-06T09:31:02;0.40;;;0.20;;
75793;SDS011;64418;47.536;19.074;2023-08-06T09:33:30;0.73;;;0.30;;
75793;SDS011;64418;47.536;19.074;2023-08-06T09:35:57;0.62;;;0.40;;
75793;SDS011;64418;47.536;19.074;2023-08-06T09:38:32;0.40;;;0.30;;
75793;SDS011;64418;47.536;19.074;2023-08-06T09:41:03;1.50;;;0.40;;
75793;SDS011;64418;47.536;19.074;2023-08-06T09:43:30;0.60;;;0.40;;
75793;SDS011;64418;47.536;19.074;2023-08-06T09:46:10;0.30;;;0.30;;
75793;SDS011;64418;47.536;19.074;2023-08-06T09:48:38;0.50;;;0.30;;
75793;SDS011;64418;47.536;19.074;2023-08-06T09:51:04;0.37;;;0.30;;
75793;SDS011;64418;47.536;19.074;2023-08-06T09:53:33;0.70;;;0.40;;
75793;SDS011;64418;47.536;19.074;2023-08-06T09:56:19;0.33;;;0.27;;
75793;SDS011;64418;47.536;19.074;2023-08-06T09:59:04;0.50;;;0.47;;
75793;SDS011;64418;47.536;19.074;2023-08-06T10:01:50;0.65;;;0.40;;
75793;SDS011;64418;47.536;19.074;2023-08-06T10:04:36;0.40;;;0.40;;
75793;SDS011;64418;47.536;19.074;2023-08-06T10:07:22;0.50;;;0.40;;
75793;SDS011;64418;47.536;19.074;2023-08-06T10:10:06;1.13;;;0.40;;
75793;SDS011;64418;47.536;19.074;2023-08-06T10:12:52;0.30;;;0.30;;
75793;SDS011;64418;47.536;19.074;2023-08-06T10:15:40;0.50;;;0.30;;
75793;SDS011;64418;47.536;19.074;2023-08-06T10:18:25;1.10;;;0.30;;
75793;SDS011;64418;47.536;19.074;2023-08-06T10:21:12;1.85;;;0.40;;
75793;SDS011;64418;47.536;19.074;2023-08-06T10:23:58;0.47;;;0.33;;
75793;SDS011;64418;47.536;19.074;2023-08-06T10:26:42;3.42;;;0.50;;
75793;SDS011;64418;47.536;19.074;2023-08-06T10:29:35;0.70;;;0.40;;
75793;SDS011;64418;47.536;19.074;2023-08-06T10:32:21;0.65;;;0.40;;
75793;SDS011;64418;47.536;19.074;2023-08-06T10:35:05;0.88;;;0.47;;
75793;SDS011;64418;47.536;19.074;2023-08-06T10:37:52;0.37;;;0.30;;
75793;SDS011;64418;47.536;19.074;2023-08-06T10:40:37;0.52;;;0.40;;
75793;SDS011;64418;47.536;19.074;2023-08-06T10:43:27;2.08;;;0.85;;
75793;SDS011;64418;47.536;19.074;2023-08-06T10:46:21;0.40;;;0.30;;
75793;SDS011;64418;47.536;19.074;2023-08-06T10:49:06;3.05;;;0.40;;
75793;SDS011;64418;47.536;19.074;2023-08-06T10:51:52;0.50;;;0.37;;
75793;SDS011;64418;47.536;19.074;2023-08-06T10:54:39;0.50;;;0.40;;
75793;SDS011;64418;47.536;19.074;2023-08-06T10:57:23;0.90;;;0.50;;
75793;SDS011;64418;47.536;19.074;2023-08-06T11:00:11;0.50;;;0.40;;
75793;SDS011;64418;47.536;19.074;2023-08-06T11:02:56;0.50;;;0.50;;
75793;SDS011;64418;47.536;19.074;2023-08-06T11:05:41;0.53;;;0.40;;
75793;SDS011;64418;47.536;19.074;2023-08-06T11:26:38;1.00;;;0.60;;
75793;SDS011;64418;47.536;19.074;2023-08-06T11:29:05;1.05;;;0.50;;
75793;SDS011;64418;47.536;19.074;2023-08-06T11:31:31;0.75;;;0.50;;
75793;SDS011;64418;47.536;19.074;2023-08-06T11:34:02;0.57;;;0.57;;
75793;SDS011;64418;47.536;19.074;2023-08-06T11:36:31;0.90;;;0.40;;
75793;SDS011;64418;47.536;19.074;2023-08-06T11:38:58;1.35;;;0.60;;
75793;SDS011;64418;47.536;19.074;2023-08-06T11:41:24;0.90;;;0.60;;
75793;SDS011;64418;47.536;19.074;2023-08-06T11:43:55;1.73;;;0.60;;
75793;SDS011;64418;47.536;19.074;2023-08-06T11:46:22;0.62;;;0.50;;
75793;SDS011;64418;47.536;19.074;2023-08-06T11:48:51;0.70;;;0.60;;
75793;SDS011;64418;47.536;19.074;2023-08-06T11:51:18;1.33;;;0.50;;
75793;SDS011;64418;47.536;19.074;2023-08-06T11:53:48;1.02;;;0.60;;
75793;SDS011;64418;47.536;19.074;2023-08-06T11:56:14;0.90;;;0.50;;
75793;SDS011;64418;47.536;19.074;2023-08-06T11:58:41;1.08;;;0.70;;
75793;SDS011;64418;47.536;19.074;2023-08-06T12:01:08;0.83;;;0.50;;
75793;SDS011;64418;47.536;19.074;2023-08-06T12:03:38;0.90;;;0.70;;
75793;SDS011;64418;47.536;19.074;2023-08-06T12:06:05;0.80;;;0.70;;
75793;SDS011;64418;47.536;19.074;2023-08-06T12:08:32;1.20;;;0.70;;
75793;SDS011;64418;47.536;19.074;2023-08-06T12:11:01;0.80;;;0.60;;
75793;SDS011;64418;47.536;19.074;2023-08-06T12:13:28;0.80;;;0.63;;
75793;SDS011;64418;47.536;19.074;2023-08-06T12:15:56;0.90;;;0.60;;
75793;SDS011;64418;47.536;19.074;2023-08-06T12:18:24;0.80;;;0.60;;
75793;SDS011;64418;47.536;19.074;2023-08-06T12:20:50;0.80;;;0.68;;
75793;SDS011;64418;47.536;19.074;2023-08-06T12:23:17;1.50;;;0.67;;
75793;SDS011;64418;47.536;19.074;2023-08-06T12:25:43;1.65;;;0.70;;
75793;SDS011;64418;47.536;19.074;2023-08-06T12:28:10;1.10;;;0.50;;
75793;SDS011;64418;47.536;19.074;2023-08-06T12:30:36;1.40;;;0.70;;
75793;SDS011;64418;47.536;19.074;2023-08-06T12:33:05;1.00;;;0.68;;
75793;SDS011;64418;47.536;19.074;2023-08-06T12:35:35;0.97;;;0.60;;
75793;SDS011;64418;47.536;19.074;2023-08-06T12:38:01;1.45;;;0.70;;
75793;SDS011;64418;47.536;19.074;2023-08-06T12:40:27;1.25;;;0.70;;
75793;SDS011;64418;47.536;19.074;2023-08-06T12:42:53;1.12;;;0.90;;
75793;SDS011;64418;47.536;19.074;2023-08-06T12:45:19;1.55;;;0.82;;
75793;SDS011;64418;47.536;19.074;2023-08-06T12:47:46;1.00;;;0.70;;
75793;SDS011;64418;47.536;19.074;2023-08-06T12:50:12;1.35;;;0.73;;
75793;SDS011;64418;47.536;19.074;2023-08-06T12:52:39;1.27;;;0.80;;
75793;SDS011;64418;47.536;19.074;2023-08-06T12:55:05;0.95;;;0.80;;
75793;SDS011;64418;47.536;19.074;2023-08-06T12:57:32;1.30;;;0.88;;
75793;SDS011;64418;47.536;19.074;2023-08-06T12:59:58;1.33;;;0.80;;
75793;SDS011;64418;47.536;19.074;2023-08-06T13:02:24;0.80;;;0.70;;
75793;SDS011;64418;47.536;19.074;2023-08-06T13:04:50;1.10;;;0.80;;
75793;SDS011;64418;47.536;19.074;2023-08-06T13:07:16;1.10;;;0.90;;
75793;SDS011;64418;47.536;19.074;2023-08-06T13:09:43;1.43;;;1.00;;
75793;SDS011;64418;47.536;19.074;2023-08-06T13:12:09;0.90;;;0.60;;
75793;SDS011;64418;47.536;19.074;2023-08-06T13:14:35;1.08;;;0.88;;
75793;SDS011;64418;47.536;19.074;2023-08-06T13:17:01;1.12;;;0.90;;
75793;SDS011;64418;47.536;19.074;2023-08-06T13:19:27;1.40;;;0.90;;
75793;SDS011;64418;47.536;19.074;2023-08-06T13:22:00;2.45;;;1.12;;
75793;SDS011;64418;47.536;19.074;2023-08-06T13:24:28;3.47;;;1.27;;
75793;SDS011;64418;47.536;19.074;2023-08-06T13:26:56;3.45;;;1.00;;
75793;SDS011;64418;47.536;19.074;2023-08-06T13:29:21;5.20;;;1.03;;
75793;SDS011;64418;47.536;19.074;2023-08-06T13:31:47;1.00;;;0.85;;
75793;SDS011;64418;47.536;19.074;2023-08-06T13:34:14;1.20;;;0.95;;
75793;SDS011;64418;47.536;19.074;2023-08-06T13:36:40;1.00;;;0.80;;
75793;SDS011;64418;47.536;19.074;2023-08-06T13:39:06;1.80;;;1.10;;
75793;SDS011;64418;47.536;19.074;2023-08-06T13:41:32;1.30;;;0.97;;
75793;SDS011;64418;47.536;19.074;2023-08-06T13:43:59;3.25;;;1.15;;
75793;SDS011;64418;47.536;19.074;2023-08-06T13:46:27;1.45;;;1.20;;
75793;SDS011;64418;47.536;19.074;2023-08-06T13:48:54;2.37;;;1.13;;
75793;SDS011;64418;47.536;19.074;2023-08-06T13:51:21;1.52;;;1.00;;
75793;SDS011;64418;47.536;19.074;2023-08-06T13:53:47;2.53;;;1.20;;
75793;SDS011;64418;47.536;19.074;2023-08-06T13:56:14;1.00;;;0.90;;
75793;SDS011;64418;47.536;19.074;2023-08-06T13:58:40;1.20;;;1.00;;
75793;SDS011;64418;47.536;19.074;2023-08-06T14:01:09;1.47;;;0.90;;
75793;SDS011;64418;47.536;19.074;2023-08-06T14:03:36;2.35;;;0.95;;
75793;SDS011;64418;47.536;19.074;2023-08-06T14:06:02;1.10;;;0.98;;
75793;SDS011;64418;47.536;19.074;2023-08-06T14:08:29;1.62;;;1.20;;
75793;SDS011;64418;47.536;19.074;2023-08-06T14:10:56;1.42;;;1.30;;
75793;SDS011;64418;47.536;19.074;2023-08-06T14:13:22;1.37;;;1.20;;
75793;SDS011;64418;47.536;19.074;2023-08-06T14:15:49;1.40;;;1.10;;
75793;SDS011;64418;47.536;19.074;2023-08-06T14:18:16;3.20;;;1.30;;
75793;SDS011;64418;47.536;19.074;2023-08-06T14:20:42;2.17;;;1.12;;
75793;SDS011;64418;47.536;19.074;2023-08-06T14:23:09;3.08;;;1.27;;
75793;SDS011;64418;47.536;19.074;2023-08-06T14:25:35;1.73;;;1.20;;
75793;SDS011;64418;47.536;19.074;2023-08-06T14:28:05;1.55;;;1.20;;
75793;SDS011;64418;47.536;19.074;2023-08-06T14:30:31;3.40;;;1.40;;
75793;SDS011;64418;47.536;19.074;2023-08-06T14:32:58;1.50;;;1.00;;
75793;SDS011;64418;47.536;19.074;2023-08-06T14:35:25;1.40;;;1.00;;
75793;SDS011;64418;47.536;19.074;2023-08-06T14:37:52;2.03;;;1.17;;
75793;SDS011;64418;47.536;19.074;2023-08-06T14:40:17;1.95;;;0.82;;
75793;SDS011;64418;47.536;19.074;2023-08-06T14:42:44;1.08;;;0.98;;
75793;SDS011;64418;47.536;19.074;2023-08-06T14:45:09;1.85;;;1.23;;
75793;SDS011;64418;47.536;19.074;2023-08-06T14:47:36;3.60;;;1.37;;
75793;SDS011;64418;47.536;19.074;2023-08-06T14:50:02;5.10;;;1.48;;
75793;SDS011;64418;47.536;19.074;2023-08-06T14:52:29;2.83;;;1.23;;
75793;SDS011;64418;47.536;19.074;2023-08-06T14:54:56;1.58;;;1.20;;
75793;SDS011;64418;47.536;19.074;2023-08-06T14:57:22;1.87;;;1.20;;